»·PEaware :: N7087P KAVQ-KBXK

N7087P :: KAVQ-KBXK

FLIGHT INFORMATION

Flight Status: Arrived
Operator: Privately registered:
United States
More flights under this callsign
Pilot: David B. (31254)
Aircraft: CESSNA 152 AEROBAT
(C152)
More flights by this aircraft type
Origin: KAVQ Marana Northwest Regl
United States
Destination: KBXK Buckeye Mun
United States
More flights between these airports :: More routes between these airports
Route: TFD
File this flight plan on PilotEdge
Remarks:
Altitude:
(Current/Filed)
4,500ft
Speed:
(Current/Filed)
90kts
Departed: 01-Oct-20 08:39 PM
Arrived: 01-Oct-20 09:47 PM
Distance/Time
Traveled:
96nm/1:07
Distance/Time
To Go:
Arrived

Flight Plot

Page will automatically refresh every two minutes.

Flight plan parsing failed; only flown route is shown


Map Options




Map Legend


Flown Route
Filed Route
Departure Airport
Arrival Airport
Navaid (VOR, NDB)
Fix

Horizontal Profiles

Position Reports

Time Latitude Longitude Heading Altitude Ground
Speed
01-Oct-20 20:27 32.405020 -111.214536 50 2029ft 0kts
01-Oct-20 20:28 32.405020 -111.214536 50 2029ft 0kts
01-Oct-20 20:29 32.405020 -111.214536 50 2029ft 0kts
01-Oct-20 20:30 32.405020 -111.214536 50 2029ft 0kts
01-Oct-20 20:31 32.405020 -111.214536 50 2029ft 0kts
01-Oct-20 20:32 32.405020 -111.214536 50 2029ft 0kts
01-Oct-20 20:33 32.405020 -111.214536 50 2029ft 0kts
01-Oct-20 20:34 32.405020 -111.214536 50 2029ft 0kts
01-Oct-20 20:35 32.404028 -111.212221 134 2032ft 11kts
01-Oct-20 20:36 32.403657 -111.211286 41 2033ft 0kts
01-Oct-20 20:37 32.404128 -111.210778 18 2034ft 9kts
01-Oct-20 20:38 32.410056 -111.217790 312 2098ft 79kts
01-Oct-20 20:39 32.425576 -111.237061 311 2712ft 84kts
01-Oct-20 20:40 32.440677 -111.257493 314 3288ft 82kts
01-Oct-20 20:41 32.456891 -111.276372 329 3760ft 83kts
01-Oct-20 20:42 32.466162 -111.299697 267 4108ft 86kts
01-Oct-20 20:43 32.464899 -111.327659 294 4412ft 89kts
01-Oct-20 20:44 32.484569 -111.342856 319 4752ft 86kts
01-Oct-20 20:45 32.499626 -111.364481 308 5202ft 86kts
01-Oct-20 20:46 32.513837 -111.387288 309 5601ft 87kts
01-Oct-20 20:47 32.529858 -111.409982 317 5143ft 92kts
01-Oct-20 20:48 32.549922 -111.427208 333 4514ft 89kts
01-Oct-20 20:49 32.568285 -111.445055 311 4431ft 87kts
01-Oct-20 20:50 32.583211 -111.471460 304 4502ft 98kts
01-Oct-20 20:51 32.600729 -111.496017 312 4605ft 98kts
01-Oct-20 20:52 32.620362 -111.518990 318 4597ft 99kts
01-Oct-20 20:53 32.641109 -111.540108 324 4532ft 97kts
01-Oct-20 20:54 32.659452 -111.563699 312 4416ft 97kts
01-Oct-20 20:56 32.677905 -111.587091 309 4353ft 96kts
01-Oct-20 20:57 32.694837 -111.611945 311 4364ft 96kts
01-Oct-20 20:58 32.712408 -111.636186 310 4404ft 97kts
01-Oct-20 20:59 32.728296 -111.662152 304 4445ft 97kts
01-Oct-20 21:00 32.742814 -111.689551 305 4473ft 98kts
01-Oct-20 21:01 32.759741 -111.715065 312 4523ft 97kts
01-Oct-20 21:02 32.775178 -111.742044 301 4546ft 99kts
01-Oct-20 21:03 32.789060 -111.770395 313 4557ft 99kts
01-Oct-20 21:04 32.807074 -111.795193 311 4585ft 98kts
01-Oct-20 21:05 32.823806 -111.821174 307 4624ft 98kts
01-Oct-20 21:06 32.835915 -111.850492 291 4626ft 100kts
01-Oct-20 21:07 32.857191 -111.869722 334 4640ft 97kts
01-Oct-20 21:08 32.876978 -111.890924 297 4669ft 99kts
01-Oct-20 21:09 32.891532 -111.918695 307 4682ft 99kts
01-Oct-20 21:10 32.905706 -111.946940 318 4694ft 99kts
01-Oct-20 21:11 32.925408 -111.969292 307 4702ft 99kts
01-Oct-20 21:12 32.941631 -111.996134 304 4718ft 99kts
01-Oct-20 21:13 32.957842 -112.022761 312 4742ft 99kts
01-Oct-20 21:14 32.977248 -112.046222 315 4756ft 99kts
01-Oct-20 21:14 32.993572 -112.065630 314 4765ft 99kts
01-Oct-20 21:15 33.010654 -112.091820 306 4766ft 99kts
01-Oct-20 21:17 33.028911 -112.124012 297 4778ft 101kts
01-Oct-20 21:17 33.041570 -112.147488 306 4821ft 101kts
01-Oct-20 21:18 33.057725 -112.175073 304 4866ft 101kts
01-Oct-20 21:20 33.076646 -112.207236 313 4852ft 103kts
01-Oct-20 21:20 33.094289 -112.225598 323 4742ft 99kts
01-Oct-20 21:21 33.117604 -112.244114 328 4432ft 98kts
01-Oct-20 21:22 33.135367 -112.269017 301 4524ft 99kts
01-Oct-20 21:23 33.149636 -112.297647 303 4427ft 98kts
01-Oct-20 21:24 33.164501 -112.325313 302 4508ft 99kts
01-Oct-20 21:25 33.179968 -112.353043 305 4590ft 100kts
01-Oct-20 21:26 33.196049 -112.380551 308 4493ft 101kts
01-Oct-20 21:27 33.211364 -112.408572 298 4453ft 101kts
01-Oct-20 21:28 33.227007 -112.435708 309 4566ft 99kts
01-Oct-20 21:29 33.244557 -112.461314 317 4647ft 100kts
01-Oct-20 21:30 33.262598 -112.486482 305 4684ft 101kts
01-Oct-20 21:31 33.278366 -112.514537 307 4545ft 102kts
01-Oct-20 21:32 33.295085 -112.541955 303 4376ft 102kts
01-Oct-20 21:33 33.309872 -112.570903 302 4278ft 102kts
01-Oct-20 21:34 33.324252 -112.599596 307 4385ft 101kts
01-Oct-20 21:35 33.341953 -112.625221 313 4534ft 99kts
01-Oct-20 21:36 33.360297 -112.650173 313 4529ft 100kts
01-Oct-20 21:37 33.379431 -112.674231 315 4539ft 99kts
01-Oct-20 21:38 33.402722 -112.688368 359 4016ft 97kts
01-Oct-20 21:39 33.428236 -112.688311 357 3343ft 86kts
01-Oct-20 21:40 33.451084 -112.691631 295 2751ft 73kts
01-Oct-20 21:41 33.443050 -112.707439 177 2193ft 73kts
01-Oct-20 21:42 33.422780 -112.706472 184 1925ft 71kts
01-Oct-20 21:43 33.404030 -112.710670 187 1818ft 66kts
01-Oct-20 21:44 33.390087 -112.702822 88 1794ft 70kts
01-Oct-20 21:45 33.399186 -112.687186 358 1614ft 66kts
01-Oct-20 21:46 33.416638 -112.686466 6 1000ft 39kts
01-Oct-20 21:47 33.417378 -112.685467 132 1003ft 0kts
01-Oct-20 21:48 33.419890 -112.685039 2 1011ft 14kts
01-Oct-20 21:49 33.419811 -112.683976 253 1010ft 5kts
01-Oct-20 21:50 33.419594 -112.684025 67 1010ft 0kts
01-Oct-20 21:51 33.419594 -112.684025 67 1010ft 0kts
01-Oct-20 21:52 33.419594 -112.684025 67 1010ft 0kts

Navigation Log

Ident Type
Flight plan parsing failed, navigation log unavailable